createdAt,value
2018-02-06T00:00:51.461Z,0
2018-02-06T00:01:51.457Z,0
2018-02-06T00:02:51.165Z,0
2018-02-06T00:03:51.395Z,0
2018-02-06T00:04:51.424Z,0
2018-02-06T00:05:51.364Z,0
2018-02-06T00:07:51.321Z,0
2018-02-06T00:08:51.050Z,0
2018-02-06T00:09:51.035Z,0
2018-02-06T00:10:51.016Z,0
2018-02-06T00:11:51.246Z,0
2018-02-06T00:12:51.234Z,0
2018-02-06T00:13:51.218Z,0
2018-02-06T00:14:50.689Z,0
2018-02-06T00:15:50.664Z,0
2018-02-06T00:16:51.157Z,0
2018-02-06T00:17:51.133Z,0
2018-02-06T00:18:51.118Z,0
2018-02-06T00:19:50.854Z,0
2018-02-06T00:20:51.088Z,0
2018-02-06T00:21:51.059Z,0
2018-02-06T00:22:51.033Z,0
2018-02-06T00:23:50.764Z,0
2018-02-06T00:24:50.750Z,0
2018-02-06T00:25:50.478Z,0
2018-02-06T00:26:50.968Z,0
2018-02-06T00:27:51.006Z,0
2018-02-06T00:28:50.674Z,0
2018-02-06T00:29:50.667Z,0
2018-02-06T00:30:50.892Z,0
2018-02-06T00:31:50.868Z,0
2018-02-06T00:32:50.851Z,0
2018-02-06T00:33:50.828Z,0
2018-02-06T00:34:50.812Z,0
2018-02-06T00:35:50.286Z,0
2018-02-06T00:36:50.777Z,0
2018-02-06T00:37:50.517Z,0
2018-02-06T00:38:50.737Z,0
2018-02-06T00:39:50.747Z,0
2018-02-06T00:40:50.184Z,0
2018-02-06T00:41:50.674Z,0
2018-02-06T00:42:50.658Z,0
2018-02-06T00:43:50.385Z,0
2018-02-06T00:44:50.370Z,0
2018-02-06T00:45:50.613Z,0
2018-02-06T00:46:50.591Z,0
2018-02-06T00:47:50.305Z,0
2018-02-06T00:48:50.544Z,0
2018-02-06T00:49:50.021Z,0
2018-02-06T00:50:50.257Z,0
2018-02-06T00:51:50.230Z,0
2018-02-06T00:52:50.472Z,0
2018-02-06T00:53:50.202Z,0
2018-02-06T00:54:50.427Z,0
2018-02-06T00:55:50.154Z,0
2018-02-06T00:56:50.397Z,0
2018-02-06T00:57:50.385Z,0
2018-02-06T00:58:50.099Z,0
2018-02-06T00:59:50.329Z,0
2018-02-06T01:00:49.809Z,0
2018-02-06T01:01:50.298Z,0
2018-02-06T01:02:50.274Z,0
2018-02-06T01:03:50.002Z,0
2018-02-06T01:04:50.239Z,0
2018-02-06T01:05:50.003Z,0
2018-02-06T01:06:49.950Z,0
2018-02-06T01:07:49.932Z,0
2018-02-06T01:08:49.656Z,0
2018-02-06T01:09:49.890Z,0
2018-02-06T01:10:50.123Z,0
2018-02-06T01:11:49.855Z,0
2018-02-06T01:12:49.846Z,0
2018-02-06T01:13:50.071Z,0
2018-02-06T01:14:50.047Z,0
2018-02-06T01:15:49.774Z,0
2018-02-06T01:16:50.007Z,0
2018-02-06T01:17:49.734Z,0
2018-02-06T01:18:49.973Z,0
2018-02-06T01:19:49.704Z,0
2018-02-06T01:20:49.936Z,0
2018-02-06T01:21:49.914Z,0
2018-02-06T01:22:49.640Z,0
2018-02-06T01:23:49.880Z,0
2018-02-06T01:24:49.865Z,0
2018-02-06T01:25:49.843Z,0
2018-02-06T01:26:49.880Z,0
2018-02-06T01:27:49.801Z,0
2018-02-06T01:28:49.784Z,0
2018-02-06T01:29:49.769Z,0
2018-02-06T01:30:49.491Z,0
2018-02-06T01:31:49.469Z,0
2018-02-06T01:32:49.459Z,0
2018-02-06T01:33:49.431Z,0
2018-02-06T01:34:49.454Z,0
2018-02-06T01:35:49.390Z,0
2018-02-06T01:36:49.372Z,0
2018-02-06T01:37:49.354Z,0
2018-02-06T01:38:49.586Z,0
2018-02-06T01:39:49.570Z,0
2018-02-06T01:40:49.551Z,0
2018-02-06T01:41:49.534Z,0
2018-02-06T01:42:49.515Z,0
2018-02-06T01:43:49.497Z,0
2018-02-06T01:44:49.473Z,0
2018-02-06T01:45:49.208Z,0
2018-02-06T01:46:49.178Z,0
2018-02-06T01:47:49.158Z,0
2018-02-06T01:48:49.141Z,0
2018-02-06T01:49:49.376Z,0
2018-02-06T01:50:49.360Z,0
2018-02-06T01:51:49.343Z,0
2018-02-06T01:52:49.069Z,0
2018-02-06T01:53:49.049Z,0
2018-02-06T01:54:49.347Z,0
2018-02-06T01:55:49.007Z,0
2018-02-06T01:56:48.989Z,0
2018-02-06T01:57:49.218Z,0
2018-02-06T01:58:48.696Z,0
2018-02-06T01:59:49.187Z,0
2018-02-06T02:00:49.164Z,0
2018-02-06T02:01:49.146Z,0
2018-02-06T02:02:49.124Z,0
2018-02-06T02:03:49.106Z,0
2018-02-06T02:04:49.082Z,0
2018-02-06T02:05:49.071Z,0
2018-02-06T02:06:48.802Z,0
2018-02-06T02:07:49.030Z,0
2018-02-06T02:08:49.010Z,0
2018-02-06T02:09:48.744Z,0
2018-02-06T02:10:48.974Z,0
2018-02-06T02:11:48.701Z,0
2018-02-06T02:12:48.997Z,0
2018-02-06T02:13:48.914Z,0
2018-02-06T02:14:48.891Z,0
2018-02-06T02:15:48.625Z,0
2018-02-06T02:16:48.604Z,0
2018-02-06T02:17:48.591Z,0
2018-02-06T02:18:48.571Z,0
2018-02-06T02:19:48.804Z,0
2018-02-06T02:20:48.782Z,0
2018-02-06T02:21:48.766Z,0
2018-02-06T02:22:48.749Z,0
2018-02-06T02:23:48.739Z,0
2018-02-06T02:24:48.708Z,0
2018-02-06T02:25:48.682Z,0
2018-02-06T02:26:48.412Z,0
2018-02-06T02:27:48.396Z,0
2018-02-06T02:28:48.629Z,0
2018-02-06T02:29:48.612Z,0
2018-02-06T02:30:48.598Z,0
2018-02-06T02:31:48.632Z,0
2018-02-06T02:32:48.299Z,0
2018-02-06T02:33:48.281Z,0
2018-02-06T02:34:48.267Z,0
2018-02-06T02:35:48.491Z,0
2018-02-06T02:36:48.486Z,0
2018-02-06T02:37:48.201Z,0
2018-02-06T02:38:48.438Z,0
2018-02-06T02:39:48.165Z,0
2018-02-06T02:40:48.396Z,0
2018-02-06T04:38:46.118Z,0
2018-02-06T04:39:45.877Z,0
2018-02-06T04:40:46.079Z,0
2018-02-06T04:41:45.800Z,0
2018-02-06T04:42:46.029Z,0
2018-02-06T04:43:46.033Z,0
2018-02-06T04:44:45.742Z,0
2018-02-06T04:45:45.971Z,0
2018-02-06T04:46:45.448Z,0
2018-02-06T04:47:45.677Z,0
2018-02-06T04:48:45.660Z,0
2018-02-06T04:49:45.635Z,20
2018-02-06T04:50:45.625Z,32
2018-02-06T04:51:45.853Z,36
2018-02-06T04:52:45.833Z,40
2018-02-06T04:53:45.570Z,40
2018-02-06T04:54:45.794Z,40
2018-02-06T04:55:45.521Z,40
2018-02-06T04:56:45.759Z,40
2018-02-06T04:57:45.772Z,40
2018-02-06T04:58:45.466Z,40
2018-02-06T04:59:45.693Z,40
2018-02-06T05:00:45.673Z,44
2018-02-06T05:01:45.663Z,44
2018-02-06T05:02:45.443Z,44
2018-02-06T05:03:45.616Z,44
2018-02-06T05:04:45.092Z,44
2018-02-06T05:05:45.581Z,44
2018-02-06T05:06:45.556Z,44
2018-02-06T05:07:45.541Z,0
2018-02-06T05:08:45.269Z,0
2018-02-06T05:09:45.499Z,0
2018-02-06T05:11:00.152Z,0
2018-02-06T05:11:45.459Z,0
2018-02-06T05:12:45.441Z,0
2018-02-06T05:13:45.428Z,0
2018-02-06T05:14:44.897Z,0
2018-02-06T05:15:45.133Z,0
2018-02-06T05:16:45.366Z,0
2018-02-06T05:17:45.345Z,0
2018-02-06T05:18:45.069Z,0
2018-02-06T05:19:45.300Z,0
2018-02-06T05:20:45.034Z,0
2018-02-06T05:21:45.265Z,0
2018-02-06T05:22:45.252Z,0
2018-02-06T05:23:45.227Z,0
2018-02-06T05:24:45.036Z,0
2018-02-06T05:25:45.189Z,0
2018-02-06T05:26:44.935Z,0
2018-02-06T05:27:45.149Z,0
2018-02-06T05:28:44.875Z,0
2018-02-06T05:29:45.112Z,0
2018-02-06T05:30:45.100Z,0
2018-02-06T05:31:44.821Z,0
2018-02-06T05:32:44.545Z,0
2018-02-06T05:33:45.032Z,0
2018-02-06T05:34:45.010Z,0
2018-02-06T05:35:44.744Z,0
2018-02-06T05:36:44.718Z,0
2018-02-06T05:37:44.959Z,0
2018-02-06T05:38:44.929Z,0
2018-02-06T05:39:44.920Z,0
2018-02-06T05:40:44.642Z,0
2018-02-06T05:41:44.880Z,0
2018-02-06T05:42:44.854Z,0
2018-02-06T05:43:44.588Z,0
2018-02-06T05:44:44.565Z,0
2018-02-06T05:45:44.866Z,0
2018-02-06T05:46:44.809Z,0
2018-02-06T05:47:44.517Z,0
2018-02-06T05:48:44.739Z,0
2018-02-06T05:49:44.463Z,0
2018-02-06T05:50:44.727Z,0
2018-02-06T05:51:44.173Z,0
2018-02-06T05:52:44.408Z,0
2018-02-06T05:53:44.641Z,0
2018-02-06T05:54:44.623Z,0
2018-02-06T05:55:44.349Z,0
2018-02-06T05:56:44.578Z,0
2018-02-06T05:57:44.056Z,0
2018-02-06T05:58:44.538Z,0
2018-02-06T05:59:44.534Z,4
2018-02-06T06:00:44.499Z,4
2018-02-06T06:01:44.227Z,0
2018-02-06T06:02:44.210Z,4
2018-02-06T06:03:43.940Z,4
2018-02-06T06:04:44.424Z,4
2018-02-06T06:05:44.149Z,4
2018-02-06T06:06:44.387Z,4
2018-02-06T06:07:44.368Z,4
2018-02-06T06:08:44.343Z,4
2018-02-06T06:09:44.327Z,8
2018-02-06T06:10:44.309Z,8
2018-02-06T06:11:44.282Z,12
2018-02-06T06:12:44.272Z,12
2018-02-06T06:13:43.996Z,16
2018-02-06T06:14:43.975Z,16
2018-02-06T06:15:44.205Z,20
2018-02-06T06:16:44.185Z,20
2018-02-06T06:17:43.916Z,28
2018-02-06T06:18:58.810Z,32
2018-02-06T06:19:44.127Z,36
2018-02-06T06:20:44.118Z,44
2018-02-06T06:21:44.096Z,52
2018-02-06T06:22:44.078Z,56
2018-02-06T06:23:58.758Z,68
2018-02-06T06:24:44.030Z,76
2018-02-06T06:25:44.013Z,84
2018-02-06T06:26:43.992Z,100
2018-02-06T06:27:43.980Z,116
2018-02-06T06:28:43.701Z,128
2018-02-06T06:29:43.680Z,144
2018-02-06T06:30:43.910Z,164
2018-02-06T06:31:43.899Z,180
2018-02-06T06:32:43.628Z,204
2018-02-06T06:33:43.854Z,224
2018-02-06T06:34:43.837Z,248
2018-02-06T06:35:43.304Z,276
2018-02-06T06:36:43.801Z,304
2018-02-06T06:37:43.268Z,328
2018-02-06T06:38:43.762Z,360
2018-02-06T06:39:43.757Z,392
2018-02-06T06:40:43.721Z,424
2018-02-06T06:41:43.446Z,460
2018-02-06T06:42:43.431Z,496
2018-02-06T06:43:43.659Z,536
2018-02-06T06:44:43.390Z,576
2018-02-06T06:45:43.623Z,616
2018-02-06T06:46:58.264Z,668
2018-02-06T06:47:43.592Z,704
2018-02-06T06:48:43.319Z,748
2018-02-06T06:49:43.556Z,796
2018-02-06T06:50:43.524Z,848
2018-02-06T06:51:43.504Z,892
2018-02-06T06:52:43.227Z,944
2018-02-06T06:53:43.458Z,996
2018-02-06T06:54:43.440Z,1044
2018-02-06T06:55:43.420Z,1096
2018-02-06T06:56:43.157Z,1148
2018-02-06T06:57:43.386Z,1200
2018-02-06T06:58:43.362Z,1256
2018-02-06T06:59:43.090Z,1308
2018-02-06T07:00:43.071Z,1364
2018-02-06T07:01:57.721Z,1432
2018-02-06T07:02:43.290Z,1472
2018-02-06T07:03:42.766Z,1524
2018-02-06T07:04:42.996Z,1596
2018-02-06T07:05:43.229Z,1664
2018-02-06T07:06:42.956Z,1760
2018-02-06T07:07:42.944Z,1816
2018-02-06T07:08:43.173Z,1888
2018-02-06T07:09:43.151Z,1936
2018-02-06T07:10:42.878Z,2000
2018-02-06T07:11:42.853Z,2040
2018-02-06T07:12:42.864Z,2172
2018-02-06T07:13:42.815Z,2224
2018-02-06T07:14:42.799Z,2368
2018-02-06T07:15:42.778Z,2528
2018-02-06T07:16:42.507Z,2616
2018-02-06T07:17:42.759Z,2724
2018-02-06T07:18:42.977Z,2828
2018-02-06T07:19:42.968Z,2900
2018-02-06T07:20:42.683Z,2984
2018-02-06T07:21:42.926Z,3092
2018-02-06T07:22:42.649Z,2936
2018-02-06T07:23:42.882Z,3244
2018-02-06T07:24:42.365Z,2788
2018-02-06T07:25:42.842Z,3252
2018-02-06T07:26:42.829Z,2996
2018-02-06T07:27:42.820Z,2924
2018-02-06T07:28:42.545Z,3020
2018-02-06T07:29:42.772Z,3088
2018-02-06T07:30:42.762Z,3116
2018-02-06T07:31:42.733Z,3852
2018-02-06T07:32:42.465Z,3888
2018-02-06T07:33:42.447Z,3796
2018-02-06T07:34:42.428Z,4212
2018-02-06T07:35:42.412Z,3952
2018-02-06T07:36:42.392Z,4204
2018-02-06T07:37:42.636Z,4216
2018-02-06T07:38:42.609Z,4464
2018-02-06T07:39:42.590Z,4620
2018-02-06T07:40:42.570Z,4668
2018-02-06T07:41:42.552Z,4632
2018-02-06T07:42:42.537Z,4536
2018-02-06T07:43:57.186Z,3912
2018-02-06T07:44:42.248Z,3648
2018-02-06T07:45:42.303Z,3552
2018-02-06T07:46:42.472Z,3596
2018-02-06T07:47:42.204Z,3688
2018-02-06T07:48:57.105Z,3704
2018-02-06T07:49:42.163Z,3684
2018-02-06T07:50:42.398Z,3732
2018-02-06T07:51:42.379Z,3776
2018-02-06T07:52:42.372Z,3704
2018-02-06T07:53:42.097Z,3796
2018-02-06T07:54:42.324Z,3684
2018-02-06T07:55:42.317Z,3736
2018-02-06T07:56:42.296Z,3756
2018-02-06T07:57:42.271Z,3820
2018-02-06T07:58:42.262Z,3796
2018-02-06T07:59:42.238Z,3840
2018-02-06T08:00:42.217Z,3988
2018-02-06T08:01:41.955Z,4060
2018-02-06T08:02:42.188Z,4064
2018-02-06T08:03:56.829Z,3984
2018-02-06T08:04:42.152Z,3940
2018-02-06T08:05:42.136Z,4048
2018-02-06T08:06:41.864Z,3980
2018-02-06T08:07:42.133Z,4096
2018-02-06T08:08:42.078Z,4088
2018-02-06T08:09:41.819Z,4024
2018-02-06T08:10:42.044Z,4100
2018-02-06T08:11:41.784Z,4140
2018-02-06T08:12:42.011Z,4068
2018-02-06T08:13:42.033Z,4100
2018-02-06T08:14:41.724Z,4188
2018-02-06T08:15:41.707Z,4292
2018-02-06T08:16:41.950Z,4140
2018-02-06T08:17:41.950Z,4216
2018-02-06T08:18:41.649Z,4208
2018-02-06T08:19:41.898Z,4188
2018-02-06T08:20:41.638Z,4180
2018-02-06T08:21:41.604Z,4260
2018-02-06T08:22:41.331Z,4232
2018-02-06T08:23:41.819Z,4288
2018-02-06T08:24:41.294Z,4256
2018-02-06T08:25:41.787Z,4240
2018-02-06T08:26:41.788Z,4300
2018-02-06T08:27:41.498Z,4324
2018-02-06T08:28:41.730Z,4380
2018-02-06T08:29:41.715Z,4280
2018-02-06T08:30:41.700Z,4284
2018-02-06T08:31:41.677Z,4308
2018-02-06T08:32:41.660Z,4280
2018-02-06T08:33:41.660Z,4280
2018-02-06T08:34:41.634Z,4276
2018-02-06T08:35:41.363Z,4256
2018-02-06T08:36:41.355Z,4264
2018-02-06T08:37:40.813Z,4268
2018-02-06T08:38:41.566Z,4272
2018-02-06T08:39:41.539Z,4284
2018-02-06T08:40:41.277Z,4256
2018-02-06T08:41:41.252Z,4260
2018-02-06T08:42:55.906Z,4272
2018-02-06T08:43:41.473Z,4292
2018-02-06T08:44:55.868Z,4324
2018-02-06T08:45:41.184Z,4308
2018-02-06T08:46:41.415Z,4312
2018-02-06T08:47:41.402Z,4308
2018-02-06T08:48:41.137Z,4288
2018-02-06T08:49:41.116Z,4296
2018-02-06T08:50:41.101Z,4276
2018-02-06T08:51:41.348Z,4300
2018-02-06T08:52:40.820Z,4316
2018-02-06T08:53:41.056Z,4312
2018-02-06T08:54:41.280Z,4304
2018-02-06T08:55:41.296Z,4308
2018-02-06T08:56:41.326Z,4324
2018-02-06T08:57:41.238Z,4316
2018-02-06T08:58:41.214Z,4324
2018-02-06T08:59:40.696Z,4352
2018-02-06T09:01:41.159Z,4372
2018-02-06T09:02:41.147Z,4372
2018-02-06T09:03:40.885Z,4396
2018-02-06T09:04:40.854Z,4388
2018-02-06T09:06:40.831Z,4380
2018-02-06T09:07:41.062Z,4368
2018-02-06T09:08:40.536Z,4388
2018-02-06T09:09:41.030Z,4400
2018-02-06T09:10:41.015Z,4408
2018-02-06T09:11:40.995Z,4404
2018-02-06T09:12:40.983Z,4364
2018-02-06T09:13:40.712Z,4376
2018-02-06T09:14:40.942Z,4388
2018-02-06T09:15:40.933Z,4380
2018-02-06T09:16:41.028Z,4380
2018-02-06T09:17:40.896Z,4372
2018-02-06T09:18:40.905Z,4388
2018-02-06T09:19:40.607Z,4376
2018-02-06T09:20:40.601Z,4376
2018-02-06T09:21:40.570Z,4372
2018-02-06T09:22:40.301Z,4368
2018-02-06T09:23:40.540Z,4360
2018-02-06T09:24:40.541Z,4380
2018-02-06T09:25:40.765Z,4400
2018-02-06T09:26:40.753Z,4408
2018-02-06T09:27:41.159Z,4412
2018-02-06T09:28:40.559Z,4416
2018-02-06T09:29:40.693Z,4420
2018-02-06T09:30:55.350Z,4428
2018-02-06T09:31:40.424Z,4412
2018-02-06T09:32:40.652Z,4408
2018-02-06T09:33:40.383Z,4404
2018-02-06T09:34:40.618Z,4396
2018-02-06T09:35:40.354Z,4400
2018-02-06T09:36:40.580Z,4408
2018-02-06T09:37:40.311Z,4404
2018-02-06T09:38:40.298Z,4408
2018-02-06T09:39:40.610Z,4388
2018-02-06T09:40:40.265Z,4368
2018-02-06T09:41:40.514Z,4352
2018-02-06T09:42:40.484Z,4352
2018-02-06T09:43:40.476Z,4356
2018-02-06T09:44:39.946Z,4364
2018-02-06T09:45:40.430Z,4372
2018-02-06T09:46:40.168Z,4352
2018-02-06T09:47:40.402Z,4328
2018-02-06T09:48:40.132Z,4320
2018-02-06T09:49:40.121Z,4312
2018-02-06T09:50:40.358Z,4312
2018-02-06T09:51:40.336Z,4300
2018-02-06T09:52:40.325Z,4296
2018-02-06T09:53:40.299Z,4292
2018-02-06T09:54:54.955Z,4272
2018-02-06T09:55:40.299Z,4264
2018-02-06T09:56:40.260Z,4276
2018-02-06T09:57:40.243Z,4296
2018-02-06T09:58:39.985Z,4296
2018-02-06T09:59:39.962Z,4284
2018-02-06T10:00:39.940Z,4268
2018-02-06T10:01:40.205Z,4268
2018-02-06T10:02:40.174Z,4268
2018-02-06T10:03:39.645Z,4256
2018-02-06T10:04:40.170Z,4244
2018-02-06T10:05:39.887Z,4228
2018-02-06T10:06:39.843Z,4244
2018-02-06T10:07:40.109Z,4244
2018-02-06T10:08:40.387Z,4240
2018-02-06T10:09:40.075Z,4244
2018-02-06T10:10:39.526Z,4248
2018-02-06T10:11:39.764Z,4252
2018-02-06T10:12:40.017Z,4240
2018-02-06T10:13:39.992Z,4248
2018-02-06T10:14:39.994Z,4260
2018-02-06T10:15:39.964Z,4260
2018-02-06T10:16:39.429Z,4248
2018-02-06T10:17:39.671Z,4240
2018-02-06T10:18:39.926Z,4232
2018-02-06T10:19:54.548Z,4212
2018-02-06T10:20:39.866Z,4204
2018-02-06T10:21:39.863Z,4200
2018-02-06T10:22:39.578Z,4204
2018-02-06T10:23:39.571Z,4208
2018-02-06T10:24:39.802Z,4228
2018-02-06T10:25:54.195Z,4244
2018-02-06T10:26:39.265Z,4252
2018-02-06T10:27:39.756Z,4256
2018-02-06T10:28:39.240Z,4252
2018-02-06T10:29:39.728Z,4256
2018-02-06T10:30:39.457Z,4264
2018-02-06T10:31:39.670Z,4276
2018-02-06T10:32:39.187Z,4284
2018-02-06T10:33:39.403Z,4288
2018-02-06T10:34:39.133Z,4292
2018-02-06T10:35:39.622Z,4288
2018-02-06T10:36:39.102Z,4264
2018-02-06T10:37:39.344Z,4252
2018-02-06T10:38:39.335Z,4224
2018-02-06T10:39:39.613Z,4236
2018-02-06T10:40:39.546Z,4240
2018-02-06T10:41:39.533Z,4244
2018-02-06T10:42:39.264Z,4228
2018-02-06T10:43:39.255Z,4208
2018-02-06T10:44:39.235Z,4200
2018-02-06T10:45:39.481Z,4176
2018-02-06T10:46:39.208Z,4172
2018-02-06T10:47:39.478Z,4188
2018-02-06T10:48:39.171Z,4204
2018-02-06T10:49:39.412Z,4204
2018-02-06T10:50:39.390Z,4184
2018-02-06T10:51:39.124Z,4172
2018-02-06T10:52:39.364Z,4176
2018-02-06T10:53:39.359Z,4164
2018-02-06T10:54:39.330Z,4144
2018-02-06T10:55:39.074Z,4140
2018-02-06T10:56:53.977Z,4132
2018-02-06T10:57:39.294Z,4120
2018-02-06T10:58:53.924Z,4088
2018-02-06T10:59:38.988Z,4084
2018-02-06T11:00:38.741Z,4084
2018-02-06T11:01:39.218Z,4096
2018-02-06T11:02:39.240Z,4096
2018-02-06T11:03:39.205Z,4096
2018-02-06T11:04:39.189Z,4084
2018-02-06T11:05:38.935Z,4076
2018-02-06T11:06:39.130Z,4072
2018-02-06T11:07:38.868Z,4076
2018-02-06T11:08:38.853Z,4072
2018-02-06T11:09:39.098Z,4076
2018-02-06T11:10:39.080Z,4080
2018-02-06T11:11:39.134Z,4076
2018-02-06T11:12:39.137Z,4076
2018-02-06T11:13:38.767Z,4068
2018-02-06T11:14:39.022Z,4060
2018-02-06T11:15:39.002Z,4064
2018-02-06T11:16:38.983Z,4068
2018-02-06T11:17:38.712Z,4076
2018-02-06T11:18:38.953Z,4068
2018-02-06T11:19:38.928Z,4056
2018-02-06T11:20:38.942Z,4044
2018-02-06T11:21:38.928Z,4036
2018-02-06T11:22:38.728Z,4024
2018-02-06T11:23:38.626Z,4012
2018-02-06T11:24:38.860Z,4000
2018-02-06T11:25:38.842Z,3984
2018-02-06T11:26:38.579Z,3976
2018-02-06T11:27:38.330Z,3972
2018-02-06T11:28:38.559Z,3976
2018-02-06T11:29:38.293Z,3984
2018-02-06T11:30:38.815Z,4000
2018-02-06T11:31:38.775Z,4024
2018-02-06T11:32:38.483Z,4056
2018-02-06T11:33:38.719Z,4044
2018-02-06T11:34:39.156Z,3996
2018-02-06T11:35:38.705Z,3976
2018-02-06T11:36:38.669Z,3956
2018-02-06T11:37:38.743Z,3932
2018-02-06T11:38:38.396Z,3912
2018-02-06T11:39:38.617Z,3908
2018-02-06T11:40:38.609Z,3908
2018-02-06T11:41:38.332Z,3920
2018-02-06T11:42:38.574Z,3920
2018-02-06T11:43:38.326Z,3912
2018-02-06T11:44:38.668Z,3908
2018-02-06T11:45:38.287Z,3912
2018-02-06T11:46:38.275Z,3904
2018-02-06T11:47:38.503Z,3888
2018-02-06T11:48:38.256Z,3872
2018-02-06T11:49:38.211Z,3856
2018-02-06T11:50:38.449Z,3840
2018-02-06T11:51:38.456Z,3828
2018-02-06T11:52:38.453Z,3828
2018-02-06T11:53:38.402Z,3832
2018-02-06T11:54:38.382Z,3832
2018-02-06T11:55:38.119Z,3832
2018-02-06T11:56:38.102Z,3824
2018-02-06T11:57:38.084Z,3820
2018-02-06T11:58:38.330Z,3808
2018-02-06T11:59:38.333Z,3804
2018-02-06T12:00:38.038Z,3796
2018-02-06T12:01:38.045Z,3788
2018-02-06T12:02:38.288Z,3780
2018-02-06T12:03:38.246Z,3776
2018-02-06T12:04:38.254Z,3764
2018-02-06T12:05:38.217Z,3760
2018-02-06T12:06:38.191Z,3752
2018-02-06T12:07:38.192Z,3752
2018-02-06T12:08:38.254Z,3748
2018-02-06T12:09:38.156Z,3752
2018-02-06T12:10:38.130Z,3748
2018-02-06T12:11:38.123Z,3744
2018-02-06T12:12:37.599Z,3740
2018-02-06T12:13:38.104Z,3732
2018-02-06T12:14:38.078Z,3732
2018-02-06T12:15:38.102Z,3724
2018-02-06T12:16:38.039Z,3724
2018-02-06T12:17:38.021Z,3720
2018-02-06T12:18:52.432Z,3724
2018-02-06T12:19:37.993Z,3728
2018-02-06T12:20:37.986Z,3736
2018-02-06T12:21:37.751Z,3736
2018-02-06T12:22:37.696Z,3736
2018-02-06T12:23:37.979Z,3728
2018-02-06T12:24:37.918Z,3728
2018-02-06T12:25:37.900Z,3724
2018-02-06T12:26:37.883Z,3720
2018-02-06T12:27:37.627Z,3720
2018-02-06T12:28:37.600Z,3720
2018-02-06T12:29:37.635Z,3720
2018-02-06T12:30:37.569Z,3716
2018-02-06T12:31:37.552Z,3712
2018-02-06T12:32:37.788Z,3708
2018-02-06T12:33:37.838Z,3704
2018-02-06T12:34:37.765Z,3700
2018-02-06T12:35:37.503Z,3696
2018-02-06T12:36:37.481Z,3692
2018-02-06T12:37:37.714Z,3688
2018-02-06T12:38:37.707Z,3684
2018-02-06T12:39:37.765Z,3684
2018-02-06T12:40:37.850Z,3684
2018-02-06T12:41:37.147Z,3680
2018-02-06T12:42:37.384Z,3676
2018-02-06T12:43:37.626Z,3672
2018-02-06T12:44:37.579Z,3664
2018-02-06T12:45:37.339Z,3660
2018-02-06T12:46:37.584Z,3656
2018-02-06T12:47:37.727Z,3648
2018-02-06T12:48:37.043Z,3640
2018-02-06T12:49:37.528Z,3640
2018-02-06T12:50:37.511Z,3632
2018-02-06T12:51:37.510Z,3632
2018-02-06T12:52:37.477Z,3620
2018-02-06T12:53:37.584Z,3620
2018-02-06T12:54:37.458Z,3616
2018-02-06T12:55:37.446Z,3612
2018-02-06T12:56:37.443Z,3612
2018-02-06T12:57:37.153Z,3608
2018-02-06T12:58:37.388Z,3600
2018-02-06T12:59:37.481Z,3600
2018-02-06T13:00:37.369Z,3592
2018-02-06T13:01:37.362Z,3592
2018-02-06T13:02:37.397Z,3584
2018-02-06T13:03:37.378Z,3572
2018-02-06T13:04:37.301Z,3564
2018-02-06T13:05:37.273Z,3560
2018-02-06T13:06:37.017Z,3548
2018-02-06T13:07:37.271Z,3540
2018-02-06T13:08:37.434Z,3536
2018-02-06T13:09:37.213Z,3532
2018-02-06T13:10:37.195Z,3524
2018-02-06T13:11:37.210Z,3520
2018-02-06T13:12:37.163Z,3520
2018-02-06T13:13:37.160Z,3508
2018-02-06T13:14:37.134Z,3504
2018-02-06T13:15:37.141Z,3500
2018-02-06T13:16:37.114Z,3492
2018-02-06T13:17:36.582Z,3484
2018-02-06T13:18:36.567Z,3480
2018-02-06T13:19:37.079Z,3476
2018-02-06T13:20:37.080Z,3468
2018-02-06T13:21:37.079Z,3456
2018-02-06T13:22:37.042Z,3456
2018-02-06T13:23:36.740Z,3448
2018-02-06T13:24:36.481Z,3444
2018-02-06T13:25:36.712Z,3440
2018-02-06T13:26:36.957Z,3432
2018-02-06T13:27:36.936Z,3432
2018-02-06T13:28:36.668Z,3428
2018-02-06T13:29:36.914Z,3424
2018-02-06T13:30:36.884Z,3420
2018-02-06T13:31:36.907Z,3420
2018-02-06T13:32:36.938Z,3412
2018-02-06T13:33:36.841Z,3400
2018-02-06T13:34:36.835Z,3392
2018-02-06T13:35:36.555Z,3384
2018-02-06T13:36:36.791Z,3376
2018-02-06T13:37:36.791Z,3368
2018-02-06T13:38:36.505Z,3360
2018-02-06T13:39:36.494Z,3352
2018-02-06T13:40:36.731Z,3344
2018-02-06T13:41:36.477Z,3336
2018-02-06T13:42:36.700Z,3332
2018-02-06T13:43:36.692Z,3320
2018-02-06T13:44:36.682Z,3312
2018-02-06T13:45:36.653Z,3308
2018-02-06T13:46:36.633Z,3304
2018-02-06T13:47:36.621Z,3296
2018-02-06T13:48:36.605Z,3292
2018-02-06T13:49:36.614Z,3280
2018-02-06T13:50:36.318Z,3272
2018-02-06T13:51:36.310Z,3264
2018-02-06T13:52:36.557Z,3256
2018-02-06T13:53:36.529Z,3248
2018-02-06T13:54:36.514Z,3240
2018-02-06T13:55:36.521Z,3232
2018-02-06T13:56:36.492Z,3224
2018-02-06T13:57:36.482Z,3220
2018-02-06T13:58:35.942Z,3204
2018-02-06T13:59:36.190Z,3200
2018-02-06T14:00:36.932Z,3188
2018-02-06T14:01:36.435Z,3184
2018-02-06T14:02:36.414Z,3176
2018-02-06T14:03:36.399Z,3164
2018-02-06T14:04:36.155Z,3156
2018-02-06T14:05:36.345Z,3144
2018-02-06T14:06:36.325Z,3136
2018-02-06T14:07:36.132Z,3124
2018-02-06T14:08:36.385Z,3112
2018-02-06T14:09:36.349Z,3100
2018-02-06T14:10:35.786Z,3092
2018-02-06T14:11:35.998Z,3080
2018-02-06T14:12:35.984Z,3068
2018-02-06T14:13:36.241Z,3060
2018-02-06T14:14:36.210Z,3048
2018-02-06T14:15:36.198Z,3036
2018-02-06T14:16:36.175Z,3024
2018-02-06T14:17:36.162Z,3008
2018-02-06T14:18:35.638Z,3000
2018-02-06T14:19:36.132Z,2992
2018-02-06T14:20:36.111Z,2980
2018-02-06T14:21:36.098Z,2972
2018-02-06T14:22:35.824Z,2964
2018-02-06T14:23:35.811Z,2956
2018-02-06T14:24:35.793Z,2944
2018-02-06T14:25:36.045Z,2928
2018-02-06T14:26:36.021Z,2920
2018-02-06T14:27:36.015Z,2908
2018-02-06T14:28:35.993Z,2896
2018-02-06T14:29:35.735Z,2880
2018-02-06T14:30:35.949Z,2872
2018-02-06T14:31:35.698Z,2856
2018-02-06T14:32:35.917Z,2840
2018-02-06T14:33:35.905Z,2824
2018-02-06T14:34:35.889Z,2804
2018-02-06T14:35:35.874Z,2788
2018-02-06T14:36:35.945Z,2772
2018-02-06T14:37:35.586Z,2748
2018-02-06T14:38:35.838Z,2732
2018-02-06T14:39:35.816Z,2712
2018-02-06T14:40:35.823Z,2696
2018-02-06T14:41:35.777Z,2676
2018-02-06T14:42:35.520Z,2664
2018-02-06T14:43:35.494Z,2644
2018-02-06T14:44:35.475Z,2628
2018-02-06T14:45:35.723Z,2608
2018-02-06T14:46:35.727Z,2588
2018-02-06T14:47:35.703Z,2572
2018-02-06T14:48:35.669Z,2552
2018-02-06T14:49:35.404Z,2532
2018-02-06T14:50:35.381Z,2512
2018-02-06T14:51:35.377Z,2492
2018-02-06T14:52:35.603Z,2472
2018-02-06T14:53:35.586Z,2448
2018-02-06T14:54:35.569Z,2424
2018-02-06T14:55:35.576Z,2404
2018-02-06T14:56:35.292Z,2384
2018-02-06T14:57:35.518Z,2360
2018-02-06T14:58:35.508Z,2340
2018-02-06T14:59:35.497Z,2316
2018-02-06T15:00:35.243Z,2296
2018-02-06T15:01:34.702Z,2268
2018-02-06T15:02:35.448Z,2248
2018-02-06T15:03:35.429Z,2220
2018-02-06T15:04:35.162Z,2192
2018-02-06T15:05:35.149Z,2160
2018-02-06T15:06:35.377Z,2132
2018-02-06T15:07:35.104Z,2104
2018-02-06T15:08:35.360Z,2084
2018-02-06T15:09:35.336Z,2060
2018-02-06T15:10:35.071Z,2020
2018-02-06T15:11:35.301Z,1984
2018-02-06T15:12:35.029Z,1960
2018-02-06T15:13:35.014Z,1940
2018-02-06T15:14:34.997Z,1916
2018-02-06T15:15:34.980Z,1884
2018-02-06T15:16:34.970Z,1852
2018-02-06T15:18:34.681Z,1792
2018-02-06T15:19:34.669Z,1760
2018-02-06T15:20:34.901Z,1724
2018-02-06T15:21:34.881Z,1692
2018-02-06T15:22:34.870Z,1656
2018-02-06T15:23:34.859Z,1620
2018-02-06T15:24:35.085Z,1580
2018-02-06T15:25:35.097Z,1544
2018-02-06T15:26:34.811Z,1508
2018-02-06T15:28:35.023Z,1436
2018-02-06T15:29:34.752Z,1400
2018-02-06T15:30:34.736Z,1360
2018-02-06T15:31:34.977Z,1320
2018-02-06T15:32:34.960Z,1276
2018-02-06T15:33:34.943Z,1236
2018-02-06T15:34:34.926Z,1188
2018-02-06T15:35:34.659Z,1144
2018-02-06T15:36:34.890Z,1100
2018-02-06T15:37:34.876Z,1060
2018-02-06T15:38:34.861Z,1020
2018-02-06T15:39:34.590Z,980
2018-02-06T15:40:34.570Z,940
2018-02-06T15:41:34.809Z,904
2018-02-06T15:42:34.796Z,868
2018-02-06T15:43:34.521Z,828
2018-02-06T15:44:34.766Z,792
2018-02-06T15:45:34.772Z,752
2018-02-06T15:46:34.473Z,716
2018-02-06T15:47:34.712Z,680